createdAt,value
2022-12-15T00:01:54.125Z,100755.69
2022-12-15T00:04:14.609Z,100761.47
2022-12-15T00:06:34.923Z,100767.41
2022-12-15T00:08:55.615Z,100760.50
2022-12-15T00:11:19.255Z,100762.19
2022-12-15T00:13:39.465Z,100764.44
2022-12-15T00:15:59.698Z,100762.09
2022-12-15T00:18:35.189Z,100759.56
2022-12-15T00:20:55.582Z,100761.72
2022-12-15T00:23:15.741Z,100763.63
2022-12-15T00:25:36.050Z,100756.72
2022-12-15T00:27:56.575Z,100747.63
2022-12-15T00:30:16.832Z,100749.22
2022-12-15T00:32:37.115Z,100754.81
2022-12-15T00:34:57.425Z,100755.50
2022-12-15T00:37:17.882Z,100755.66
2022-12-15T00:39:19.793Z,100753.41
2022-12-15T00:41:21.588Z,100750.50
2022-12-15T00:43:23.248Z,100764.03
2022-12-15T00:45:44.824Z,100768.22
2022-12-15T00:47:46.474Z,100765.13
2022-12-15T00:50:06.602Z,100769.91
2022-12-15T00:52:26.930Z,100767.44
2022-12-15T00:54:47.131Z,100777.16
2022-12-15T00:57:07.609Z,100770.91
2022-12-15T00:59:28.426Z,100776.78
2022-12-15T01:01:49.832Z,100775.91
2022-12-15T01:04:10.498Z,100780.25
2022-12-15T01:06:35.372Z,100779.38
2022-12-15T01:08:57.719Z,100781.94
2022-12-15T01:11:19.670Z,100772.41
2022-12-15T01:13:39.942Z,100777.66
2022-12-15T01:16:00.492Z,100785.16
2022-12-15T01:18:23.022Z,100785.25
2022-12-15T01:20:24.645Z,100778.69
2022-12-15T01:22:26.300Z,100775.19
2022-12-15T01:24:27.949Z,100775.50
2022-12-15T01:26:29.598Z,100771.88
2022-12-15T01:28:31.353Z,100782.09
2022-12-15T01:30:33.172Z,100778.59
2022-12-15T01:32:35.086Z,100776.84
2022-12-15T01:34:36.763Z,100779.56
2022-12-15T01:36:38.438Z,100782.72
2022-12-15T01:38:40.178Z,100782.53
2022-12-15T01:40:51.917Z,100786.44
2022-12-15T01:42:53.657Z,100782.06
2022-12-15T01:45:23.989Z,100778.47
2022-12-15T01:47:27.944Z,100783.56
2022-12-15T01:49:31.743Z,100788.69
2022-12-15T01:51:37.805Z,100787.63
2022-12-15T01:53:50.135Z,100790.28
2022-12-15T01:55:52.354Z,100782.38
2022-12-15T01:58:00.696Z,100792.81
2022-12-15T02:00:06.691Z,100801.06
2022-12-15T02:02:08.496Z,100804.59
2022-12-15T02:04:10.788Z,100804.69
2022-12-15T02:06:13.783Z,100795.69
2022-12-15T02:08:15.593Z,100804.00
2022-12-15T02:10:17.492Z,100799.88
2022-12-15T02:12:37.066Z,100805.13
2022-12-15T02:14:59.005Z,100806.34
2022-12-15T02:17:45.547Z,100808.19
2022-12-15T02:20:05.195Z,100809.44
2022-12-15T02:22:21.945Z,100812.69
2022-12-15T02:24:45.313Z,100813.47
2022-12-15T02:26:51.406Z,100815.81
2022-12-15T02:29:10.577Z,100804.50
2022-12-15T02:31:50.000Z,100810.63
2022-12-15T02:34:00.492Z,100813.69
2022-12-15T02:36:15.812Z,100822.06
2022-12-15T02:38:30.681Z,100814.72
2022-12-15T02:40:32.382Z,100817.19
2022-12-15T02:42:39.079Z,100819.44
2022-12-15T02:44:59.621Z,100817.69
2022-12-15T02:47:07.196Z,100825.16
2022-12-15T02:49:31.591Z,100834.63
2022-12-15T02:51:46.452Z,100826.63
2022-12-15T02:53:51.181Z,100820.88
2022-12-15T02:56:24.441Z,100826.94
2022-12-15T02:58:37.469Z,100821.75
2022-12-15T03:00:45.207Z,100826.63
2022-12-15T03:02:51.835Z,100827.50
2022-12-15T03:04:54.015Z,100830.03
2022-12-15T03:07:01.597Z,100833.28
2022-12-15T03:09:03.956Z,100835.00
2022-12-15T03:11:05.808Z,100833.88
2022-12-15T03:13:07.515Z,100839.91
2022-12-15T03:15:12.233Z,100837.47
2022-12-15T03:17:17.465Z,100840.88
2022-12-15T03:19:19.610Z,100839.69
2022-12-15T03:21:21.339Z,100837.94
2022-12-15T03:23:23.165Z,100846.31
2022-12-15T03:25:24.839Z,100840.69
2022-12-15T03:27:26.646Z,100835.63
2022-12-15T03:29:28.359Z,100840.69
2022-12-15T03:31:30.203Z,100842.34
2022-12-15T03:33:34.046Z,100827.25
2022-12-15T03:35:36.064Z,100833.19
2022-12-15T03:37:37.773Z,100836.59
2022-12-15T03:39:39.499Z,100829.00
2022-12-15T03:41:41.805Z,100829.16
2022-12-15T03:43:43.630Z,100830.91
2022-12-15T03:45:45.406Z,100835.97
2022-12-15T03:47:47.929Z,100839.28
2022-12-15T03:49:49.622Z,100837.28
2022-12-15T03:51:51.552Z,100840.47
2022-12-15T03:53:53.979Z,100840.78
2022-12-15T03:55:55.590Z,100832.78
2022-12-15T03:57:57.607Z,100843.09
2022-12-15T03:59:59.303Z,100830.56
2022-12-15T04:02:01.189Z,100832.97
2022-12-15T04:04:04.292Z,100825.88
2022-12-15T04:06:06.221Z,100826.66
2022-12-15T04:08:07.972Z,100819.94
2022-12-15T04:10:10.775Z,100816.34
2022-12-15T04:12:12.439Z,100821.50
2022-12-15T04:14:14.073Z,100820.31
2022-12-15T04:16:20.293Z,100821.19
2022-12-15T04:18:22.349Z,100817.63
2022-12-15T04:20:24.339Z,100820.75
2022-12-15T04:22:26.011Z,100817.63
2022-12-15T04:24:46.426Z,100824.63
2022-12-15T04:27:06.916Z,100820.84
2022-12-15T04:29:26.948Z,100821.63
2022-12-15T04:31:50.061Z,100820.63
2022-12-15T04:34:12.881Z,100816.34
2022-12-15T04:36:34.211Z,100824.63
2022-12-15T04:38:54.656Z,100818.50
2022-12-15T04:41:18.093Z,100822.56
2022-12-15T04:43:38.662Z,100823.25
2022-12-15T04:45:58.576Z,100829.28
2022-12-15T04:48:18.968Z,100837.97
2022-12-15T04:50:39.410Z,100833.47
2022-12-15T04:52:59.811Z,100837.47
2022-12-15T04:55:20.373Z,100835.63
2022-12-15T04:57:40.944Z,100844.19
2022-12-15T05:00:00.959Z,100839.91
2022-12-15T05:02:21.644Z,100840.69
2022-12-15T05:04:42.137Z,100846.09
2022-12-15T05:07:02.820Z,100851.56
2022-12-15T05:09:23.458Z,100856.31
2022-12-15T05:11:43.951Z,100854.66
2022-12-15T05:14:10.403Z,100856.63
2022-12-15T05:16:30.533Z,100853.88
2022-12-15T05:18:50.580Z,100854.75
2022-12-15T05:21:12.570Z,100853.31
2022-12-15T05:23:33.031Z,100851.75
2022-12-15T05:25:53.013Z,100851.56
2022-12-15T05:28:13.503Z,100841.56
2022-12-15T05:30:33.954Z,100844.19
2022-12-15T05:32:35.858Z,100845.66
2022-12-15T05:34:38.366Z,100844.19
2022-12-15T05:36:39.997Z,100838.34
2022-12-15T05:38:41.657Z,100839.91
2022-12-15T05:40:43.273Z,100842.34
2022-12-15T05:42:44.865Z,100849.84
2022-12-15T05:44:52.022Z,100847.66
2022-12-15T05:46:53.827Z,100851.16
2022-12-15T05:48:55.530Z,100852.53
2022-12-15T05:50:57.177Z,100853.50
2022-12-15T05:52:59.817Z,100857.69
2022-12-15T05:55:01.507Z,100852.31
2022-12-15T05:57:03.290Z,100850.19
2022-12-15T05:59:05.458Z,100848.44
2022-12-15T06:01:16.964Z,100846.09
2022-12-15T06:03:18.595Z,100845.44
2022-12-15T06:05:20.368Z,100854.28
2022-12-15T06:07:21.996Z,100844.16
2022-12-15T06:09:23.600Z,100845.22
2022-12-15T06:11:25.257Z,100847.75
2022-12-15T06:13:29.075Z,100847.34
2022-12-15T06:15:35.721Z,100849.00
2022-12-15T06:17:37.423Z,100852.31
2022-12-15T06:19:39.028Z,100854.84
2022-12-15T06:21:40.686Z,100853.00
2022-12-15T06:23:42.925Z,100857.19
2022-12-15T06:25:44.561Z,100854.84
2022-12-15T06:27:46.226Z,100848.72
2022-12-15T06:29:47.896Z,100853.38
2022-12-15T06:31:49.758Z,100861.09
2022-12-15T06:34:01.346Z,100862.06
2022-12-15T06:36:09.580Z,100861.72
2022-12-15T06:38:11.264Z,100857.78
2022-12-15T06:40:13.051Z,100868.66
2022-12-15T06:42:14.754Z,100866.16
2022-12-15T06:44:16.662Z,100857.88
2022-12-15T06:46:18.823Z,100863.72
2022-12-15T06:48:21.738Z,100865.28
2022-12-15T06:50:23.352Z,100865.13
2022-12-15T06:52:24.979Z,100864.34
2022-12-15T06:54:26.646Z,100867.91
2022-12-15T06:56:37.006Z,100873.91
2022-12-15T06:58:38.783Z,100878.78
2022-12-15T07:00:42.888Z,100877.22
2022-12-15T07:02:44.670Z,100873.91
2022-12-15T07:05:16.307Z,100883.84
2022-12-15T07:07:17.983Z,100876.53
2022-12-15T07:09:19.605Z,100883.53
2022-12-15T07:11:22.323Z,100891.03
2022-12-15T07:13:28.323Z,100892.78
2022-12-15T07:15:31.571Z,100884.41
2022-12-15T07:17:33.148Z,100883.44
2022-12-15T07:19:37.568Z,100885.78
2022-12-15T07:21:39.261Z,100890.06
2022-12-15T07:23:54.245Z,100889.09
2022-12-15T07:25:57.267Z,100883.44
2022-12-15T07:27:58.890Z,100886.19
2022-12-15T07:30:00.511Z,100888.31
2022-12-15T07:32:02.249Z,100893.56
2022-12-15T07:34:04.504Z,100884.22
2022-12-15T07:36:08.313Z,100885.19
2022-12-15T07:38:09.944Z,100897.66
2022-12-15T07:40:12.342Z,100900.28
2022-12-15T07:42:14.336Z,100896.19
2022-12-15T07:44:16.151Z,100896.97
2022-12-15T07:46:18.372Z,100896.88
2022-12-15T07:48:20.839Z,100897.75
2022-12-15T07:50:22.918Z,100894.16
2022-12-15T07:52:25.840Z,100902.03
2022-12-15T07:54:27.878Z,100904.25
2022-12-15T07:56:38.879Z,100895.13
2022-12-15T07:58:41.342Z,100901.75
2022-12-15T08:00:48.623Z,100897.22
2022-12-15T08:02:51.692Z,100902.50
2022-12-15T08:04:53.947Z,100907.56
2022-12-15T08:06:56.101Z,100902.41
2022-12-15T08:08:59.538Z,100908.91
2022-12-15T08:11:11.389Z,100914.94
2022-12-15T08:13:31.421Z,100915.50
2022-12-15T08:15:37.720Z,100915.84
2022-12-15T08:17:40.599Z,100918.06
2022-12-15T08:19:42.685Z,100926.31
2022-12-15T08:21:45.987Z,100924.25
2022-12-15T08:23:48.283Z,100923.88
2022-12-15T08:25:50.427Z,100927.97
2022-12-15T08:27:52.727Z,100928.16
2022-12-15T08:29:55.077Z,100927.19
2022-12-15T08:31:57.302Z,100924.56
2022-12-15T08:34:00.569Z,100926.75
2022-12-15T08:36:05.630Z,100922.59
2022-12-15T08:38:07.697Z,100935.56
2022-12-15T08:40:10.371Z,100928.84
2022-12-15T08:42:12.464Z,100933.81
2022-12-15T08:44:17.158Z,100934.09
2022-12-15T08:46:21.797Z,100939.34
2022-12-15T08:48:24.567Z,100937.81
2022-12-15T08:50:26.721Z,100937.91
2022-12-15T08:52:29.007Z,100942.97
2022-12-15T08:54:32.723Z,100941.44
2022-12-15T08:56:36.141Z,100943.16
2022-12-15T08:59:11.805Z,100942.81
2022-12-15T09:01:22.432Z,100954.00
2022-12-15T09:03:25.291Z,100948.25
2022-12-15T09:05:39.053Z,100961.91
2022-12-15T09:07:41.125Z,100955.84
2022-12-15T09:09:43.463Z,100965.31
2022-12-15T09:11:45.979Z,100966.38
2022-12-15T09:13:48.428Z,100973.28
2022-12-15T09:16:10.946Z,100972.41
2022-12-15T09:18:13.526Z,100983.59
2022-12-15T09:20:17.910Z,100975.56
2022-12-15T09:22:20.857Z,100980.16
2022-12-15T09:24:32.489Z,100982.09
2022-12-15T09:26:37.042Z,100979.47
2022-12-15T09:28:44.746Z,100986.28
2022-12-15T09:30:53.385Z,100993.28
2022-12-15T09:32:57.461Z,101001.75
2022-12-15T09:35:01.077Z,100991.88
2022-12-15T09:37:03.962Z,100997.22
2022-12-15T09:39:06.067Z,100994.41
2022-12-15T09:41:23.799Z,101000.53
2022-12-15T09:43:38.948Z,101005.09
2022-12-15T09:45:49.005Z,100993.91
2022-12-15T09:47:56.789Z,100990.03
2022-12-15T09:50:01.923Z,101001.31
2022-12-15T09:52:11.463Z,100996.84
2022-12-15T09:54:13.841Z,100995.97
2022-12-15T09:56:21.219Z,100993.13
2022-12-15T09:58:44.548Z,100997.53
2022-12-15T10:00:55.618Z,101006.31
2022-12-15T10:03:17.867Z,101005.44
2022-12-15T10:05:57.420Z,101012.84
2022-12-15T10:07:53.420Z,101009.75
2022-12-15T10:09:57.159Z,101012.75
2022-12-15T10:12:02.360Z,101018.91
2022-12-15T10:14:23.084Z,101018.41
2022-12-15T10:16:28.907Z,101022.69
2022-12-15T10:18:40.723Z,101027.47
2022-12-15T10:20:43.120Z,101022.22
2022-12-15T10:22:45.963Z,101026.69
2022-12-15T10:25:09.823Z,101026.78
2022-12-15T10:27:31.639Z,101029.63
2022-12-15T10:29:41.487Z,101032.59
2022-12-15T10:31:55.083Z,101027.06
2022-12-15T10:34:10.941Z,101034.84
2022-12-15T10:36:15.903Z,101025.81
2022-12-15T10:38:33.489Z,101027.03
2022-12-15T10:40:43.456Z,101020.97
2022-12-15T10:42:50.643Z,101027.78
2022-12-15T10:44:56.893Z,101026.44
2022-12-15T10:46:59.744Z,101021.84
2022-12-15T10:49:09.407Z,101024.63
2022-12-15T10:51:15.220Z,101023.28
2022-12-15T10:53:35.451Z,101024.97
2022-12-15T10:55:41.443Z,101024.34
2022-12-15T10:58:00.119Z,101026.31
2022-12-15T11:00:15.285Z,101029.91
2022-12-15T11:05:55.835Z,101010.88
2022-12-15T11:08:16.680Z,101021.47
2022-12-15T11:10:50.217Z,101020.44
2022-12-15T11:13:00.512Z,101009.50
2022-12-15T11:15:03.043Z,101005.81
2022-12-15T11:17:07.721Z,101013.44
2022-12-15T11:19:17.733Z,101004.75
2022-12-15T11:21:33.940Z,100997.16
2022-12-15T11:23:55.736Z,100998.78
2022-12-15T11:26:24.304Z,100999.22
2022-12-15T11:28:39.273Z,100991.97
2022-12-15T11:30:48.246Z,100986.16
2022-12-15T11:32:56.004Z,100989.22
2022-12-15T11:34:59.480Z,100991.22
2022-12-15T11:37:21.081Z,100980.44
2022-12-15T11:39:29.648Z,100988.94
2022-12-15T11:41:45.104Z,100982.25
2022-12-15T11:44:11.803Z,100984.63
2022-12-15T11:46:22.065Z,100987.41
2022-12-15T11:48:44.361Z,100986.97
2022-12-15T11:51:01.572Z,100981.88
2022-12-15T11:53:25.583Z,100977.38
2022-12-15T11:55:44.022Z,100975.25
2022-12-15T11:58:11.400Z,100976.34
2022-12-15T12:00:19.382Z,100967.31
2022-12-15T12:02:22.251Z,100974.53
2022-12-15T12:04:48.760Z,100968.69
2022-12-15T12:07:10.341Z,100968.75
2022-12-15T12:09:17.624Z,100962.78
2022-12-15T12:11:33.426Z,100963.50
2022-12-15T12:13:55.648Z,100962.63
2022-12-15T12:16:06.008Z,100962.84
2022-12-15T12:18:15.860Z,100964.78
2022-12-15T12:20:22.349Z,100967.31
2022-12-15T12:22:29.719Z,100967.63
2022-12-15T12:24:45.581Z,100962.28
2022-12-15T12:27:06.708Z,100957.97
2022-12-15T12:29:18.441Z,100955.03
2022-12-15T12:31:38.341Z,100951.06
2022-12-15T12:33:49.566Z,100949.91
2022-12-15T12:35:59.160Z,100953.28
2022-12-15T12:38:04.450Z,100947.66
2022-12-15T12:40:16.761Z,100948.69
2022-12-15T12:42:28.040Z,100945.75
2022-12-15T12:44:34.548Z,100942.47
2022-12-15T12:46:44.278Z,100939.19
2022-12-15T12:49:00.965Z,100933.66
2022-12-15T12:51:25.439Z,100935.59
2022-12-15T12:53:34.219Z,100924.13
2022-12-15T12:55:42.625Z,100932.09
2022-12-15T12:57:46.500Z,100930.84
2022-12-15T13:00:01.001Z,100928.50
2022-12-15T13:02:16.074Z,100931.06
2022-12-15T13:04:29.039Z,100932.66
2022-12-15T13:06:41.003Z,100929.09
2022-12-15T13:08:50.911Z,100930.25
2022-12-15T13:10:55.753Z,100925.22
2022-12-15T13:12:59.928Z,100921.28
2022-12-15T13:15:13.351Z,100922.22
2022-12-15T13:17:28.268Z,100918.28
2022-12-15T13:19:53.683Z,100925.06
2022-12-15T13:21:56.394Z,100921.78
2022-12-15T13:23:59.788Z,100914.75
2022-12-15T13:26:11.469Z,100916.78
2022-12-15T13:28:23.061Z,100912.72
2022-12-15T13:30:25.407Z,100911.72
2022-12-15T13:32:32.423Z,100913.03
2022-12-15T13:34:39.305Z,100910.34
2022-12-15T13:36:41.918Z,100912.09
2022-12-15T13:38:55.133Z,100906.16
2022-12-15T13:40:57.195Z,100910.41
2022-12-15T13:43:09.503Z,100908.38
2022-12-15T13:45:31.502Z,100912.94
2022-12-15T13:47:34.948Z,100899.50
2022-12-15T13:49:49.368Z,100898.63
2022-12-15T13:52:12.743Z,100894.63
2022-12-15T13:54:20.000Z,100895.59
2022-12-15T13:56:28.688Z,100894.00
2022-12-15T13:58:40.043Z,100888.16
2022-12-15T14:00:59.156Z,100906.81
2022-12-15T14:03:12.625Z,100886.50
2022-12-15T14:05:15.359Z,100887.41
2022-12-15T14:07:17.728Z,100901.28
2022-12-15T14:09:26.122Z,100891.66
2022-12-15T14:11:51.981Z,100894.56
2022-12-15T14:14:00.755Z,100888.72
2022-12-15T14:16:15.226Z,100891.94
2022-12-15T14:18:32.114Z,100889.91
2022-12-15T14:20:40.629Z,100893.72
2022-12-15T14:22:43.434Z,100896.41
2022-12-15T14:24:47.086Z,100895.28
2022-12-15T14:26:51.524Z,100890.97
2022-12-15T14:29:02.284Z,100892.50
2022-12-15T14:33:16.469Z,100886.91
2022-12-15T14:35:32.768Z,100892.75
2022-12-15T14:37:35.301Z,100892.44
2022-12-15T14:39:44.089Z,100888.09
2022-12-15T14:41:49.156Z,100886.47
2022-12-15T14:44:37.316Z,100889.81
2022-12-15T14:46:25.968Z,100887.88
2022-12-15T14:48:53.531Z,100895.88
2022-12-15T14:50:58.092Z,100891.56
2022-12-15T14:53:06.107Z,100890.41
2022-12-15T14:55:18.253Z,100899.41
2022-12-15T14:57:23.064Z,100907.00
2022-12-15T14:59:25.313Z,100905.38
2022-12-15T15:01:35.309Z,100896.88
2022-12-15T15:03:39.757Z,100908.91
2022-12-15T15:05:44.386Z,100908.59
2022-12-15T15:07:47.809Z,100910.06
2022-12-15T15:09:50.865Z,100913.97
2022-12-15T15:11:57.445Z,100910.31
2022-12-15T15:16:14.745Z,100912.66
2022-12-15T15:18:19.420Z,100910.66
2022-12-15T15:20:27.063Z,100907.19
2022-12-15T15:22:33.551Z,100912.28
2022-12-15T15:24:37.800Z,100913.72
2022-12-15T15:26:40.539Z,100907.97
2022-12-15T15:28:45.169Z,100905.06
2022-12-15T15:30:49.332Z,100910.00
2022-12-15T15:32:57.233Z,100907.31
2022-12-15T15:34:59.335Z,100909.84
2022-12-15T15:37:06.134Z,100912.00
2022-12-15T15:39:15.683Z,100909.47
2022-12-15T15:41:31.884Z,100903.34
2022-12-15T15:43:34.371Z,100906.53
2022-12-15T15:45:36.898Z,100905.50
2022-12-15T15:47:41.639Z,100910.53
2022-12-15T15:49:45.056Z,100902.81
2022-12-15T15:51:47.933Z,100910.78
2022-12-15T15:53:50.650Z,100907.38
2022-12-15T15:55:54.783Z,100912.19
2022-12-15T15:57:57.048Z,100919.03
2022-12-15T15:59:58.985Z,100915.47
2022-12-15T16:02:02.615Z,100924.53
2022-12-15T16:04:06.741Z,100928.84
2022-12-15T16:06:17.635Z,100938.84
2022-12-15T16:08:22.188Z,100940.50
2022-12-15T16:10:24.191Z,100937.41
2022-12-15T16:12:27.677Z,100939.00
2022-12-15T16:14:30.598Z,100937.25
2022-12-15T16:16:34.956Z,100941.47
2022-12-15T16:18:36.918Z,100936.91
2022-12-15T16:20:40.326Z,100937.78
2022-12-15T16:22:45.136Z,100934.28
2022-12-15T16:24:47.830Z,100935.81
2022-12-15T16:26:50.845Z,100938.34
2022-12-15T16:28:52.870Z,100937.41
2022-12-15T16:30:55.982Z,100942.16
2022-12-15T16:32:58.212Z,100937.78
2022-12-15T16:35:00.288Z,100938.66
2022-12-15T16:37:03.129Z,100935.31
2022-12-15T16:39:05.355Z,100940.19
2022-12-15T16:41:13.203Z,100943.41
2022-12-15T16:43:20.110Z,100945.63
2022-12-15T16:45:24.138Z,100943.09
2022-12-15T16:47:27.481Z,100945.63
2022-12-15T16:49:35.073Z,100948.69
2022-12-15T16:51:45.387Z,100939.25
2022-12-15T16:53:47.624Z,100948.63
2022-12-15T16:55:54.562Z,100948.47
2022-12-15T16:58:00.796Z,100943.53
2022-12-15T17:00:03.225Z,100945.13
2022-12-15T17:02:22.299Z,100946.53
2022-12-15T17:04:26.200Z,100941.63
2022-12-15T17:06:28.325Z,100943.31
2022-12-15T17:08:40.300Z,100942.25
2022-12-15T17:10:43.306Z,100950.59
2022-12-15T17:12:45.801Z,100953.84
2022-12-15T17:14:47.912Z,100955.50
2022-12-15T17:16:50.566Z,100952.88
2022-12-15T17:18:53.099Z,100951.47
2022-12-15T17:21:07.110Z,100950.66
2022-12-15T17:23:16.736Z,100956.38
2022-12-15T17:25:46.086Z,100965.41
2022-12-15T17:27:48.761Z,100966.34
2022-12-15T17:29:50.842Z,100964.97
2022-12-15T17:31:52.930Z,100976.72
2022-12-15T17:33:55.171Z,100982.13
2022-12-15T17:36:01.479Z,100976.00
2022-12-15T17:38:03.438Z,100983.69
2022-12-15T17:40:23.252Z,100982.75
2022-12-15T17:42:25.407Z,100982.03
2022-12-15T17:44:34.341Z,100992.84
2022-12-15T17:46:37.422Z,100988.78
2022-12-15T17:48:39.435Z,100997.19
2022-12-15T17:50:41.790Z,100992.66
2022-12-15T17:52:46.801Z,100995.66
2022-12-15T17:54:49.085Z,100992.25
2022-12-15T17:56:51.128Z,100987.94
2022-12-15T17:58:54.106Z,100991.44
2022-12-15T18:00:57.472Z,100995.50
2022-12-15T18:03:00.952Z,100995.22
2022-12-15T18:05:03.072Z,100991.28
2022-12-15T18:07:05.205Z,100994.34
2022-12-15T18:09:14.954Z,100996.34
2022-12-15T18:11:21.585Z,101000.56
2022-12-15T18:13:34.831Z,100999.53
2022-12-15T18:15:37.427Z,101003.09
2022-12-15T18:17:39.365Z,101010.00
2022-12-15T18:19:41.505Z,101010.00
2022-12-15T18:21:43.689Z,101011.44
2022-12-15T18:23:50.610Z,101005.81
2022-12-15T18:25:52.766Z,101011.09
2022-12-15T18:27:56.670Z,101014.59
2022-12-15T18:29:58.710Z,101014.50
2022-12-15T18:32:00.753Z,101004.66
2022-12-15T18:34:04.887Z,101021.78
2022-12-15T18:36:07.415Z,101019.81
2022-12-15T18:38:17.665Z,101026.84
2022-12-15T18:40:24.388Z,101026.22
2022-12-15T18:42:26.404Z,101033.94
2022-12-15T18:44:32.205Z,101031.75
2022-12-15T18:46:34.265Z,101033.75
2022-12-15T18:48:36.364Z,101048.56
2022-12-15T18:50:39.985Z,101051.72
2022-12-15T18:52:42.376Z,101064.69
2022-12-15T18:54:44.961Z,101055.22
2022-12-15T18:56:47.089Z,101055.03
2022-12-15T18:58:49.060Z,101057.31
2022-12-15T19:00:52.854Z,101053.38
2022-12-15T19:02:58.223Z,101062.31
2022-12-15T19:05:00.251Z,101056.44
2022-12-15T19:07:06.737Z,101078.69
2022-12-15T19:09:15.830Z,101065.66
2022-12-15T19:11:31.224Z,101068.63
2022-12-15T19:13:36.409Z,101073.72
2022-12-15T19:15:38.344Z,101075.47
2022-12-15T19:17:49.304Z,101070.31
2022-12-15T19:20:02.311Z,101083.88
2022-12-15T19:22:25.595Z,101079.50
2022-12-15T19:24:39.353Z,101084.50
2022-12-15T19:26:41.754Z,101075.63
2022-12-15T19:28:43.799Z,101081.69
2022-12-15T19:30:46.464Z,101095.97
2022-12-15T19:32:48.434Z,101088.19
2022-12-15T19:34:50.518Z,101089.22
2022-12-15T19:36:52.517Z,101088.19
2022-12-15T19:38:56.016Z,101097.63
2022-12-15T19:40:59.655Z,101092.47
2022-12-15T19:43:03.905Z,101100.97
2022-12-15T19:45:18.146Z,101096.84
2022-12-15T19:47:20.190Z,101098.50
2022-12-15T19:49:22.226Z,101098.75
2022-12-15T19:51:25.141Z,101094.31
2022-12-15T19:53:30.324Z,101091.44
2022-12-15T19:55:35.406Z,101096.69
2022-12-15T19:57:37.354Z,101095.88
2022-12-15T19:59:39.655Z,101102.78
2022-12-15T20:01:41.795Z,101107.72
2022-12-15T20:03:46.286Z,101108.59
2022-12-15T20:05:51.343Z,101104.47
2022-12-15T20:07:59.476Z,101107.72
2022-12-15T20:10:01.633Z,101107.63
2022-12-15T20:12:03.825Z,101110.09
2022-12-15T20:14:17.633Z,101102.53
2022-12-15T20:16:20.546Z,101107.34
2022-12-15T20:18:22.783Z,101117.25
2022-12-15T20:20:27.291Z,101112.63
2022-12-15T20:22:29.274Z,101114.28
2022-12-15T20:24:33.085Z,101130.41
2022-12-15T20:26:37.835Z,101128.44
2022-12-15T20:28:40.030Z,101124.94
2022-12-15T20:30:42.092Z,101130.41
2022-12-15T20:32:44.067Z,101128.63
2022-12-15T20:34:47.096Z,101128.53
2022-12-15T20:36:49.431Z,101122.88
2022-12-15T20:38:52.889Z,101126.28
2022-12-15T20:40:55.644Z,101128.44
2022-12-15T20:42:58.167Z,101136.78
2022-12-15T20:45:00.134Z,101142.81
2022-12-15T20:47:02.205Z,101144.94
2022-12-15T20:49:04.940Z,101150.03
2022-12-15T20:51:09.780Z,101146.53
2022-12-15T20:53:18.335Z,101153.94
2022-12-15T20:55:20.795Z,101155.03
2022-12-15T20:57:22.755Z,101161.38
2022-12-15T20:59:24.590Z,101155.53
2022-12-15T21:01:32.139Z,101156.69
2022-12-15T21:03:37.692Z,101151.59
2022-12-15T21:05:39.984Z,101158.22
2022-12-15T21:07:42.695Z,101160.44
2022-12-15T21:09:44.971Z,101158.16
2022-12-15T21:11:48.504Z,101159.81
2022-12-15T21:13:52.675Z,101157.28
2022-12-15T21:15:54.939Z,101162.44
2022-12-15T21:18:29.193Z,101163.13
2022-12-15T21:20:19.850Z,101167.53
2022-12-15T21:22:24.515Z,101164.00
2022-12-15T21:24:28.541Z,101177.00
2022-12-15T21:26:30.767Z,101172.59
2022-12-15T21:28:33.478Z,101187.25
2022-12-15T21:30:36.715Z,101178.03
2022-12-15T21:32:38.996Z,101176.03
2022-12-15T21:34:41.307Z,101183.63
2022-12-15T21:36:46.996Z,101186.88
2022-12-15T21:38:51.957Z,101177.81
2022-12-15T21:40:59.599Z,101191.38
2022-12-15T21:43:04.766Z,101189.41
2022-12-15T21:45:14.561Z,101191.38
2022-12-15T21:47:26.369Z,101191.56
2022-12-15T21:49:28.455Z,101187.53
2022-12-15T21:51:34.885Z,101191.03
2022-12-15T21:53:36.990Z,101191.72
2022-12-15T21:55:44.464Z,101194.34
2022-12-15T21:57:46.425Z,101183.84
2022-12-15T21:59:48.295Z,101189.81
2022-12-15T22:01:50.908Z,101189.88
2022-12-15T22:03:56.105Z,101187.53
2022-12-15T22:05:57.797Z,101188.22
2022-12-15T22:08:11.723Z,101186.56
2022-12-15T22:10:13.824Z,101192.59
2022-12-15T22:12:21.575Z,101187.25
2022-12-15T22:14:33.344Z,101185.78
2022-12-15T22:16:34.983Z,101183.84
2022-12-15T22:18:36.766Z,101184.63
2022-12-15T22:20:38.482Z,101187.53
2022-12-15T22:22:40.242Z,101186.56
2022-12-15T22:24:42.363Z,101184.88
2022-12-15T22:26:44.495Z,101182.59
2022-12-15T22:28:46.491Z,101187.69
2022-12-15T22:30:51.506Z,101188.59
2022-12-15T22:32:53.820Z,101191.13
2022-12-15T22:34:55.631Z,101188.22
2022-12-15T22:36:57.489Z,101191.56
2022-12-15T22:39:02.973Z,101200.22
2022-12-15T22:41:26.062Z,101206.25
2022-12-15T22:43:36.783Z,101205.91
2022-12-15T22:45:42.754Z,101212.94
2022-12-15T22:47:47.342Z,101211.34
2022-12-15T22:49:49.076Z,101215.47
2022-12-15T22:51:51.209Z,101215.28
2022-12-15T22:53:52.989Z,101219.59
2022-12-15T22:55:56.525Z,101220.63
2022-12-15T22:58:06.668Z,101218.19
2022-12-15T23:00:11.160Z,101216.34
2022-12-15T23:02:13.400Z,101225.06
2022-12-15T23:04:15.116Z,101221.63
2022-12-15T23:06:16.874Z,101227.38
2022-12-15T23:08:18.597Z,101225.72
2022-12-15T23:10:39.467Z,101218.00
2022-12-15T23:12:41.020Z,101223.19
2022-12-15T23:15:14.770Z,101224.84
2022-12-15T23:17:20.141Z,101231.50
2022-12-15T23:19:24.818Z,101235.72
2022-12-15T23:21:26.819Z,101231.31
2022-12-15T23:23:28.863Z,101240.09
2022-12-15T23:25:30.880Z,101235.00
2022-12-15T23:27:33.686Z,101231.31
2022-12-15T23:30:05.228Z,101236.22
2022-12-15T23:32:07.601Z,101234.44
2022-12-15T23:34:10.691Z,101242.84
2022-12-15T23:36:13.390Z,101243.84
2022-12-15T23:38:16.087Z,101240.41
2022-12-15T23:40:22.652Z,101243.56
2022-12-15T23:42:25.480Z,101243.28
2022-12-15T23:44:27.503Z,101252.56
2022-12-15T23:46:29.945Z,101243.38
2022-12-15T23:48:37.387Z,101245.84
2022-12-15T23:50:39.864Z,101245.91
2022-12-15T23:52:41.990Z,101240.06
2022-12-15T23:54:45.171Z,101245.84
2022-12-15T23:56:47.541Z,101257.66
2022-12-15T23:58:55.739Z,101252.75
